Time;durP1;ratioP1;P1;durP2;ratioP2;P2;SDS_P1;SDS_P2;PMS_P1;PMS_P2;Temp;Humidity;BMP_temperature;BMP_pressure;BME280_temperature;BME280_humidity;BME280_pressure;Samples;Min_cycle;Max_cycle;Signal;HPM_P1;HPM_P2
2021/05/16 00:01:40;;;;;;;3.10;0.85;;;9.40;74.00;;;;;;5042406;28;20055;-86
2021/05/16 00:04:06;;;;;;;2.25;0.90;;;9.40;74.10;;;;;;5047164;28;20024;-86
2021/05/16 00:06:31;;;;;;;2.55;0.80;;;9.40;74.20;;;;;;5038195;28;20400;-86
2021/05/16 00:08:57;;;;;;;2.45;0.93;;;9.30;74.20;;;;;;5038911;28;20048;-85
2021/05/16 00:11:23;;;;;;;3.83;0.65;;;9.30;74.30;;;;;;5044228;28;20099;-86
2021/05/16 00:13:49;;;;;;;4.35;0.73;;;9.30;74.20;;;;;;5067775;28;20018;-83
2021/05/16 00:16:14;;;;;;;2.30;0.70;;;9.30;74.30;;;;;;5058093;28;20021;-83
2021/05/16 00:18:40;;;;;;;2.83;0.88;;;9.30;74.30;;;;;;5051971;28;20464;-88
2021/05/16 00:21:06;;;;;;;1.20;0.70;;;9.30;74.40;;;;;;5070097;28;20564;-86
2021/05/16 00:23:32;;;;;;;2.40;0.73;;;9.30;74.50;;;;;;5046129;28;20025;-84
2021/05/16 00:25:58;;;;;;;1.83;0.70;;;9.30;74.60;;;;;;5043901;28;20045;-84
2021/05/16 00:28:23;;;;;;;3.58;0.82;;;9.30;74.60;;;;;;5050744;28;20103;-87
2021/05/16 00:30:49;;;;;;;2.58;1.10;;;9.30;74.60;;;;;;5038044;28;20039;-86
2021/05/16 00:33:15;;;;;;;2.13;0.70;;;9.20;74.60;;;;;;5038892;28;20036;-85
2021/05/16 00:35:41;;;;;;;2.90;0.63;;;9.20;74.70;;;;;;5049284;28;20061;-85
2021/05/16 00:38:06;;;;;;;1.55;0.80;;;9.20;74.80;;;;;;5062216;28;20094;-85
2021/05/16 00:40:34;;;;;;;1.15;0.70;;;9.20;74.90;;;;;;5037351;28;20052;-83
2021/05/16 00:43:00;;;;;;;1.95;0.90;;;9.20;75.00;;;;;;5071901;28;20027;-85
2021/05/16 00:45:27;;;;;;;1.73;1.02;;;9.20;75.00;;;;;;5036546;28;20020;-83
2021/05/16 00:47:55;;;;;;;2.17;0.80;;;9.20;75.00;;;;;;5051496;28;20033;-84
2021/05/16 00:50:24;;;;;;;2.67;0.88;;;9.20;74.90;;;;;;5084473;28;20019;-84
2021/05/16 00:52:50;;;;;;;2.72;0.90;;;9.20;75.00;;;;;;5056687;28;20022;-83
2021/05/16 00:55:17;;;;;;;1.05;0.80;;;9.20;75.10;;;;;;5059852;28;20036;-86
2021/05/16 00:57:43;;;;;;;1.77;0.70;;;9.20;75.10;;;;;;5045637;28;20070;-84
2021/05/16 01:00:15;;;;;;;2.90;0.60;;;9.20;75.10;;;;;;5070928;28;20037;-84
2021/05/16 01:02:41;;;;;;;7.70;1.00;;;9.20;75.30;;;;;;5040727;28;20056;-86
2021/05/16 01:05:09;;;;;;;2.25;0.68;;;9.30;75.30;;;;;;5061695;28;20453;-84
2021/05/16 01:07:36;;;;;;;3.47;0.90;;;9.20;75.30;;;;;;5038181;28;20033;-86
2021/05/16 01:10:04;;;;;;;2.95;0.80;;;9.20;75.40;;;;;;5035047;28;20128;-85
2021/05/16 01:12:32;;;;;;;1.63;0.70;;;9.20;75.50;;;;;;5074280;28;20455;-84
2021/05/16 01:15:01;;;;;;;1.77;0.60;;;9.30;75.50;;;;;;5063874;28;20051;-84
2021/05/16 01:17:27;;;;;;;2.03;0.77;;;9.30;75.60;;;;;;5059202;28;20024;-85
2021/05/16 01:19:53;;;;;;;1.73;0.82;;;9.30;75.40;;;;;;5046572;28;20028;-85
2021/05/16 01:22:19;;;;;;;5.43;0.98;;;9.30;75.40;;;;;;5038834;28;20029;-85
2021/05/16 01:24:47;;;;;;;1.98;0.52;;;9.40;75.50;;;;;;5053684;28;20028;-86
2021/05/16 01:27:14;;;;;;;1.95;0.70;;;9.40;75.50;;;;;;5052266;28;20198;-85
2021/05/16 01:29:39;;;;;;;1.50;0.60;;;9.40;75.50;;;;;;5071947;28;20056;-87
2021/05/16 01:32:10;;;;;;;1.23;0.80;;;9.40;75.60;;;;;;5037538;28;20021;-87
2021/05/16 01:34:37;;;;;;;1.85;0.57;;;9.40;75.60;;;;;;5054142;28;20021;-83
2021/05/16 01:37:03;;;;;;;3.40;0.73;;;9.40;75.50;;;;;;5070287;28;20372;-86
2021/05/16 01:39:29;;;;;;;1.35;0.60;;;9.50;75.60;;;;;;5045801;28;20033;-85
2021/05/16 01:41:55;;;;;;;0.80;0.57;;;9.50;75.60;;;;;;5049878;28;20028;-84
2021/05/16 01:44:20;;;;;;;2.25;0.88;;;9.50;75.50;;;;;;5036255;28;20086;-84
2021/05/16 01:46:46;;;;;;;2.08;0.60;;;9.50;75.50;;;;;;5054005;28;20058;-86
2021/05/16 01:49:13;;;;;;;2.55;0.60;;;9.50;75.50;;;;;;5057555;28;20165;-86
2021/05/16 01:51:38;;;;;;;2.97;0.75;;;9.50;75.50;;;;;;5036244;28;20082;-84
2021/05/16 01:54:07;;;;;;;1.45;0.60;;;9.50;75.50;;;;;;5048226;28;20020;-85
2021/05/16 01:56:33;;;;;;;4.18;0.57;;;9.40;75.50;;;;;;5037104;28;20047;-84
2021/05/16 01:58:59;;;;;;;2.00;0.60;;;9.40;75.50;;;;;;5054598;28;20063;-84
2021/05/16 02:01:25;;;;;;;2.20;0.63;;;9.40;75.50;;;;;;5041902;28;20052;-87
2021/05/16 02:03:51;;;;;;;0.75;0.50;;;9.40;75.60;;;;;;5039417;28;20025;-84
2021/05/16 02:06:17;;;;;;;2.58;0.45;;;9.40;75.80;;;;;;5052827;28;20057;-85
2021/05/16 02:08:44;;;;;;;0.82;0.57;;;9.40;75.80;;;;;;5049023;28;20045;-84
2021/05/16 02:11:10;;;;;;;2.88;0.70;;;9.40;75.90;;;;;;5064711;28;20025;-85
2021/05/16 02:13:38;;;;;;;2.45;0.80;;;9.40;76.40;;;;;;5047153;28;20029;-85
2021/05/16 02:16:04;;;;;;;3.70;0.80;;;9.40;76.10;;;;;;5041846;28;20497;-82
2021/05/16 02:18:30;;;;;;;3.00;0.90;;;9.40;76.10;;;;;;5044064;28;20084;-85
2021/05/16 02:20:55;;;;;;;1.13;0.55;;;9.40;76.30;;;;;;5068592;28;20103;-84
2021/05/16 02:23:21;;;;;;;1.95;0.70;;;9.40;76.50;;;;;;5058936;28;20118;-84
2021/05/16 02:25:50;;;;;;;0.93;0.60;;;9.40;77.20;;;;;;5044447;28;20088;-85
2021/05/16 02:28:15;;;;;;;1.77;0.73;;;9.40;76.70;;;;;;5037385;28;20089;-84
2021/05/16 02:30:41;;;;;;;1.85;0.73;;;9.40;76.70;;;;;;5062934;28;20116;-85
2021/05/16 02:33:07;;;;;;;4.13;0.60;;;9.40;76.90;;;;;;5052713;28;20025;-83
2021/05/16 02:35:32;;;;;;;2.88;0.77;;;9.40;77.00;;;;;;5060059;28;20037;-83
2021/05/16 02:37:58;;;;;;;2.78;0.75;;;9.30;77.00;;;;;;5066239;28;20380;-83
2021/05/16 02:40:24;;;;;;;0.90;0.70;;;9.40;77.20;;;;;;5039999;28;20115;-85
2021/05/16 02:42:49;;;;;;;0.63;0.60;;;9.40;77.30;;;;;;5056669;28;20495;-84
2021/05/16 02:45:15;;;;;;;2.30;0.82;;;9.40;77.30;;;;;;5055717;28;20522;-85
2021/05/16 02:47:42;;;;;;;2.53;0.77;;;9.40;77.50;;;;;;5062600;28;20032;-85
2021/05/16 02:50:12;;;;;;;0.90;0.55;;;9.30;77.50;;;;;;5061494;28;20240;-82
2021/05/16 02:52:38;;;;;;;2.70;0.65;;;9.30;77.60;;;;;;5035477;28;20052;-83
2021/05/16 02:55:05;;;;;;;1.60;0.60;;;9.40;77.80;;;;;;5034828;28;20115;-84
2021/05/16 02:57:31;;;;;;;2.47;0.80;;;9.40;78.00;;;;;;5046328;28;20039;-84
2021/05/16 02:59:57;;;;;;;4.40;0.80;;;9.40;78.00;;;;;;5048108;28;20020;-83
2021/05/16 03:02:22;;;;;;;1.20;0.60;;;9.40;78.00;;;;;;5035876;28;20021;-85
2021/05/16 03:04:48;;;;;;;4.53;0.80;;;9.40;78.10;;;;;;5034164;28;20025;-85
2021/05/16 03:07:14;;;;;;;2.33;0.77;;;9.40;78.30;;;;;;5062756;28;20503;-85
2021/05/16 03:09:40;;;;;;;4.57;0.88;;;9.50;78.40;;;;;;5051545;28;20028;-84
2021/05/16 03:12:07;;;;;;;2.65;0.98;;;9.40;78.20;;;;;;5052110;28;20481;-84
2021/05/16 03:14:34;;;;;;;2.17;0.90;;;9.40;78.30;;;;;;5053049;28;20032;-85
2021/05/16 03:17:00;;;;;;;3.72;0.77;;;9.40;78.40;;;;;;5051990;28;20021;-83
2021/05/16 03:19:27;;;;;;;1.13;0.75;;;9.40;78.30;;;;;;5037693;28;20517;-83
2021/05/16 03:21:53;;;;;;;1.85;0.70;;;9.40;78.40;;;;;;5035827;28;20025;-86
2021/05/16 03:24:19;;;;;;;2.38;0.80;;;9.50;78.70;;;;;;5044925;28;20035;-86
2021/05/16 03:26:45;;;;;;;3.15;0.80;;;9.40;78.60;;;;;;5046957;28;20108;-83
2021/05/16 03:29:11;;;;;;;1.40;0.98;;;9.40;78.80;;;;;;5057614;28;20017;-83
2021/05/16 03:31:37;;;;;;;4.25;1.10;;;9.40;78.70;;;;;;5059138;28;20017;-83
2021/05/16 03:34:05;;;;;;;3.00;1.10;;;9.30;78.80;;;;;;5059831;28;20565;-85
2021/05/16 03:36:30;;;;;;;4.63;1.20;;;9.30;79.00;;;;;;5047680;28;20449;-86
2021/05/16 03:38:56;;;;;;;3.08;1.15;;;9.30;79.20;;;;;;5041426;28;20026;-85
2021/05/16 03:41:22;;;;;;;1.60;0.93;;;9.20;79.90;;;;;;5042401;28;20061;-83
2021/05/16 03:43:49;;;;;;;2.78;1.17;;;9.20;79.50;;;;;;5037167;28;20099;-82
2021/05/16 03:46:16;;;;;;;4.93;1.33;;;9.20;79.50;;;;;;5044977;28;20397;-84
2021/05/16 03:48:41;;;;;;;3.95;1.17;;;9.20;79.60;;;;;;5056594;23;20040;-71
2021/05/16 03:51:07;;;;;;;6.63;1.27;;;9.10;79.80;;;;;;5045516;28;20029;-71
2021/05/16 03:53:33;;;;;;;2.70;1.27;;;9.10;79.80;;;;;;5067350;28;20609;-71
2021/05/16 03:55:58;;;;;;;4.93;1.20;;;9.00;80.00;;;;;;5058656;28;20435;-71
2021/05/16 03:58:24;;;;;;;5.13;1.30;;;9.00;80.20;;;;;;5065949;28;20035;-71
2021/05/16 04:00:50;;;;;;;3.20;0.95;;;8.90;80.30;;;;;;5066494;28;20032;-70
2021/05/16 04:03:16;;;;;;;3.05;1.17;;;8.90;80.60;;;;;;5067015;28;20487;-71
2021/05/16 04:05:41;;;;;;;3.10;1.33;;;8.80;80.80;;;;;;5049658;28;20116;-71
2021/05/16 04:08:07;;;;;;;3.25;1.30;;;8.80;81.00;;;;;;5051379;28;20534;-71
2021/05/16 04:10:33;;;;;;;7.40;1.27;;;8.80;81.20;;;;;;5064244;28;20028;-70
2021/05/16 04:12:59;;;;;;;4.15;1.30;;;8.80;81.50;;;;;;5066470;28;20056;-71
2021/05/16 04:15:25;;;;;;;3.47;1.30;;;8.80;81.80;;;;;;5047847;28;20036;-71
2021/05/16 04:17:50;;;;;;;2.13;1.30;;;8.80;81.80;;;;;;5067631;28;20392;-70
2021/05/16 04:20:16;;;;;;;3.67;1.27;;;8.80;82.00;;;;;;5048215;28;20550;-71
2021/05/16 04:22:42;;;;;;;2.10;1.38;;;8.80;82.20;;;;;;5062155;28;20085;-71
2021/05/16 04:25:08;;;;;;;1.85;1.10;;;8.90;82.50;;;;;;5048652;28;20025;-71
2021/05/16 04:27:34;;;;;;;4.03;1.33;;;8.90;82.70;;;;;;5068187;28;20039;-71
2021/05/16 04:29:59;;;;;;;3.72;1.35;;;8.90;82.70;;;;;;5066775;28;20025;-71
2021/05/16 04:32:25;;;;;;;3.88;1.40;;;9.00;82.80;;;;;;5065876;28;20561;-71
2021/05/16 04:34:50;;;;;;;6.15;1.50;;;9.00;82.90;;;;;;5069282;28;20561;-72
2021/05/16 04:37:16;;;;;;;7.05;1.42;;;9.00;83.00;;;;;;5069815;28;20029;-71
2021/05/16 04:39:42;;;;;;;3.28;1.38;;;9.00;83.00;;;;;;5070552;28;20070;-72
2021/05/16 04:42:08;;;;;;;2.85;1.30;;;9.10;83.00;;;;;;5065892;28;20544;-71
2021/05/16 04:44:34;;;;;;;3.78;1.30;;;9.10;83.10;;;;;;5063957;28;20040;-71
2021/05/16 04:46:59;;;;;;;6.60;1.30;;;9.10;83.00;;;;;;5070411;28;20024;-71
2021/05/16 04:49:25;;;;;;;7.70;1.25;;;9.10;83.10;;;;;;5070768;28;20114;-71
2021/05/16 04:51:50;;;;;;;4.30;1.55;;;9.20;83.20;;;;;;5072130;28;20048;-71
2021/05/16 04:54:16;;;;;;;3.25;1.35;;;9.10;83.20;;;;;;5070806;28;20169;-72
2021/05/16 04:56:41;;;;;;;2.42;1.25;;;9.10;83.30;;;;;;5070312;28;20031;-72
2021/05/16 04:59:09;;;;;;;3.95;1.20;;;9.20;83.50;;;;;;5050369;28;20580;-72
2021/05/16 05:01:38;;;;;;;4.60;1.15;;;9.20;83.60;;;;;;5070934;28;20052;-71
2021/05/16 05:04:04;;;;;;;3.00;1.30;;;9.20;83.70;;;;;;5052273;28;20086;-71
2021/05/16 05:06:29;;;;;;;5.47;1.50;;;9.20;83.70;;;;;;5070042;28;20108;-72
2021/05/16 05:08:57;;;;;;;6.43;1.25;;;9.30;83.80;;;;;;5052833;28;20032;-72
2021/05/16 05:11:22;;;;;;;5.32;1.50;;;9.30;83.90;;;;;;5054940;28;20032;-71
2021/05/16 05:13:48;;;;;;;6.78;1.70;;;9.30;83.90;;;;;;5073624;28;20074;-71
2021/05/16 05:16:14;;;;;;;2.83;1.20;;;9.30;84.00;;;;;;5069325;28;20035;-72
2021/05/16 05:18:39;;;;;;;5.13;1.60;;;9.30;84.10;;;;;;5052242;28;20031;-72
2021/05/16 05:21:07;;;;;;;4.03;1.40;;;9.40;84.10;;;;;;5053820;28;20033;-72
2021/05/16 05:23:33;;;;;;;4.65;1.55;;;9.40;84.20;;;;;;5071707;28;20089;-72
2021/05/16 05:25:58;;;;;;;4.88;1.50;;;9.30;84.10;;;;;;5050301;28;20028;-72
2021/05/16 05:28:24;;;;;;;2.53;1.77;;;9.40;84.30;;;;;;5051385;28;20059;-71
2021/05/16 05:30:50;;;;;;;3.40;1.60;;;9.40;84.40;;;;;;5051984;28;20032;-72
2021/05/16 05:33:18;;;;;;;3.38;1.70;;;9.40;84.50;;;;;;5052135;28;20047;-71
2021/05/16 05:35:44;;;;;;;4.60;1.92;;;9.50;84.50;;;;;;5050230;28;20036;-72
2021/05/16 05:38:09;;;;;;;3.78;1.60;;;9.50;84.40;;;;;;5071389;28;20021;-71
2021/05/16 05:40:35;;;;;;;3.05;1.23;;;9.60;84.50;;;;;;5069563;28;20055;-71
2021/05/16 05:43:01;;;;;;;3.47;1.35;;;9.60;84.40;;;;;;5067330;28;20035;-71
2021/05/16 05:45:27;;;;;;;3.33;1.15;;;9.70;84.30;;;;;;5064894;28;20037;-71
2021/05/16 05:47:52;;;;;;;3.90;1.33;;;9.80;84.30;;;;;;5069858;28;20024;-71
2021/05/16 05:50:18;;;;;;;4.15;1.20;;;9.80;84.30;;;;;;5052107;28;20120;-72
2021/05/16 05:52:43;;;;;;;1.40;1.20;;;9.80;84.30;;;;;;5070413;28;20103;-72
2021/05/16 05:55:10;;;;;;;7.50;3.78;;;9.80;84.30;;;;;;5070720;28;20032;-71
2021/05/16 05:57:35;;;;;;;3.92;1.27;;;9.80;84.40;;;;;;5068013;28;20063;-72
2021/05/16 06:00:01;;;;;;;2.38;1.40;;;9.80;84.40;;;;;;5068278;28;20464;-72
2021/05/16 06:02:26;;;;;;;3.60;1.40;;;9.90;84.50;;;;;;5069868;28;20017;-71
2021/05/16 06:04:52;;;;;;;3.42;1.20;;;9.90;84.40;;;;;;5068959;28;20111;-71
2021/05/16 06:07:18;;;;;;;2.55;1.40;;;10.00;84.50;;;;;;5069277;28;20476;-71
2021/05/16 06:09:44;;;;;;;1.92;0.95;;;10.00;84.60;;;;;;5050966;28;20028;-71
2021/05/16 06:12:10;;;;;;;2.05;1.10;;;10.10;84.70;;;;;;5051200;28;20024;-72
2021/05/16 06:14:36;;;;;;;4.15;1.20;;;10.20;84.70;;;;;;5068717;28;20527;-71
2021/05/16 06:17:02;;;;;;;3.58;1.00;;;10.40;84.80;;;;;;5068366;28;20032;-71
2021/05/16 06:19:28;;;;;;;3.20;1.20;;;10.50;84.80;;;;;;5069188;28;20483;-71
2021/05/16 06:21:54;;;;;;;1.55;0.90;;;10.50;84.60;;;;;;5044297;28;20107;-71
2021/05/16 06:24:19;;;;;;;3.03;1.10;;;10.60;84.40;;;;;;5048730;28;20315;-71
2021/05/16 06:26:46;;;;;;;5.07;1.00;;;10.70;84.60;;;;;;5069364;28;20036;-71
2021/05/16 06:29:13;;;;;;;3.25;1.05;;;10.70;84.40;;;;;;5066504;28;20052;-72
2021/05/16 06:31:40;;;;;;;5.38;0.77;;;10.70;84.30;;;;;;5049379;28;20028;-71
2021/05/16 06:34:06;;;;;;;2.10;0.82;;;10.80;84.20;;;;;;5067673;28;20387;-71
2021/05/16 06:36:32;;;;;;;2.33;0.75;;;10.90;84.00;;;;;;5068876;28;20104;-72
2021/05/16 06:38:58;;;;;;;0.55;0.55;;;11.10;83.70;;;;;;5066374;28;20104;-71
2021/05/16 06:41:25;;;;;;;1.50;0.70;;;11.10;83.70;;;;;;5049549;28;20029;-71
2021/05/16 06:43:51;;;;;;;3.22;0.80;;;11.00;83.80;;;;;;5045519;28;20025;-71
2021/05/16 06:46:17;;;;;;;2.05;0.80;;;11.10;83.70;;;;;;5050800;28;20074;-71
2021/05/16 06:48:43;;;;;;;4.15;0.85;;;11.10;83.50;;;;;;5067380;28;20141;-71
2021/05/16 06:51:09;;;;;;;1.60;0.60;;;11.10;83.30;;;;;;5035847;28;20514;-71
2021/05/16 06:53:35;;;;;;;3.17;0.80;;;11.10;83.20;;;;;;5048051;28;20032;-72
2021/05/16 06:56:01;;;;;;;0.82;0.60;;;11.00;83.10;;;;;;5051329;28;20025;-72
2021/05/16 06:58:27;;;;;;;1.65;0.60;;;11.00;83.00;;;;;;5064393;28;20037;-71
2021/05/16 07:00:53;;;;;;;1.63;0.60;;;11.00;83.10;;;;;;5063199;28;20025;-71
2021/05/16 07:03:19;;;;;;;2.15;0.70;;;11.10;83.10;;;;;;5067762;28;20461;-71
2021/05/16 07:05:44;;;;;;;2.42;0.73;;;11.40;82.90;;;;;;5065260;28;20027;-72
2021/05/16 07:08:10;;;;;;;0.60;0.55;;;11.70;82.50;;;;;;5064761;28;20016;-72
2021/05/16 07:10:36;;;;;;;0.68;0.60;;;12.00;82.20;;;;;;5070347;28;20067;-71
2021/05/16 07:13:02;;;;;;;1.40;0.60;;;12.30;81.80;;;;;;5068141;28;20028;-71
2021/05/16 07:15:28;;;;;;;1.98;0.70;;;12.50;81.70;;;;;;5066810;28;20056;-73
2021/05/16 07:17:54;;;;;;;1.00;0.50;;;12.80;81.20;;;;;;5067436;28;20060;-72
2021/05/16 07:20:19;;;;;;;0.63;0.52;;;13.00;80.70;;;;;;5061013;28;20082;-72
2021/05/16 07:22:45;;;;;;;1.20;0.50;;;13.00;80.10;;;;;;5062692;28;20028;-72
2021/05/16 07:25:12;;;;;;;1.60;0.60;;;13.10;80.10;;;;;;5048054;28;20063;-72
2021/05/16 07:27:38;;;;;;;3.78;0.75;;;13.60;79.30;;;;;;5068582;28;20493;-73
2021/05/16 07:30:05;;;;;;;0.65;0.50;;;13.90;78.80;;;;;;5073955;28;20033;-72
2021/05/16 07:32:31;;;;;;;0.73;0.50;;;14.10;78.00;;;;;;5054196;28;20519;-72
2021/05/16 07:34:56;;;;;;;0.68;0.57;;;14.20;77.50;;;;;;5064254;28;20043;-70
2021/05/16 07:37:22;;;;;;;0.80;0.50;;;14.70;76.30;;;;;;5063832;28;20169;-71
2021/05/16 07:39:48;;;;;;;1.00;0.50;;;14.70;75.90;;;;;;5063084;28;20041;-71
2021/05/16 07:42:13;;;;;;;2.22;0.60;;;14.40;76.60;;;;;;5068567;28;20128;-70
2021/05/16 07:44:39;;;;;;;2.25;0.65;;;14.40;76.50;;;;;;5034178;28;20060;-71
2021/05/16 07:47:05;;;;;;;1.80;0.60;;;14.10;76.60;;;;;;5044404;28;20020;-71
2021/05/16 07:49:30;;;;;;;1.17;0.50;;;14.00;76.70;;;;;;5063389;28;20090;-71
2021/05/16 07:51:56;;;;;;;1.55;0.60;;;13.80;76.70;;;;;;5068061;28;20036;-70
2021/05/16 07:54:22;;;;;;;1.08;0.40;;;13.60;76.60;;;;;;5067572;28;20052;-70
2021/05/16 07:56:47;;;;;;;4.13;0.55;;;13.40;76.50;;;;;;5067568;28;20032;-69
2021/05/16 07:59:13;;;;;;;3.50;0.80;;;13.30;76.90;;;;;;5067009;28;20028;-70
2021/05/16 08:01:39;;;;;;;0.65;0.40;;;13.10;76.90;;;;;;5062146;28;20043;-70
2021/05/16 08:04:04;;;;;;;2.50;0.50;;;13.10;77.20;;;;;;5050608;28;20016;-70
2021/05/16 08:06:30;;;;;;;5.03;0.68;;;13.00;77.20;;;;;;5050614;28;20032;-70
2021/05/16 08:08:55;;;;;;;2.22;0.80;;;13.20;76.50;;;;;;5068901;28;20429;-70
2021/05/16 08:11:21;;;;;;;0.85;0.50;;;13.30;76.00;;;;;;5072511;28;20040;-70
2021/05/16 08:13:48;;;;;;;2.40;0.70;;;13.70;75.50;;;;;;5070499;28;20035;-70
2021/05/16 08:16:14;;;;;;;2.22;0.70;;;14.10;74.80;;;;;;5049496;28;20484;-70
2021/05/16 08:18:39;;;;;;;3.22;0.73;;;14.60;74.00;;;;;;5070091;28;20105;-70
2021/05/16 08:21:05;;;;;;;3.65;1.75;;;14.90;72.90;;;;;;5070473;28;20025;-70
2021/05/16 08:23:31;;;;;;;2.97;0.80;;;15.10;72.50;;;;;;5064853;28;20099;-70
2021/05/16 08:25:56;;;;;;;1.75;0.60;;;16.10;70.40;;;;;;5060373;28;20033;-70
2021/05/16 08:28:25;;;;;;;4.28;0.85;;;16.10;69.90;;;;;;5067943;28;20392;-70
2021/05/16 08:30:51;;;;;;;1.80;0.55;;;16.30;69.60;;;;;;5066323;28;20029;-70
2021/05/16 08:33:16;;;;;;;5.32;0.70;;;15.90;71.10;;;;;;5064123;28;20025;-70
2021/05/16 08:35:42;;;;;;;1.67;0.60;;;15.90;70.80;;;;;;5062577;28;20040;-70
2021/05/16 08:38:08;;;;;;;4.72;0.70;;;15.50;71.10;;;;;;5041614;28;20116;-70
2021/05/16 08:40:33;;;;;;;1.10;0.45;;;15.20;71.50;;;;;;5055190;28;20044;-70
2021/05/16 08:43:01;;;;;;;5.15;0.90;;;15.00;71.20;;;;;;5062871;28;20028;-70
2021/05/16 08:45:27;;;;;;;5.05;0.93;;;14.70;71.60;;;;;;5064044;28;20048;-70
2021/05/16 08:47:52;;;;;;;4.32;1.13;;;14.60;71.80;;;;;;5072144;28;20361;-70
2021/05/16 08:50:18;;;;;;;4.78;1.10;;;14.40;72.50;;;;;;5047158;28;20044;-70
2021/05/16 08:52:44;;;;;;;3.83;0.73;;;14.30;72.00;;;;;;5071252;28;20021;-72
2021/05/16 08:55:13;;;;;;;3.83;0.80;;;14.20;72.40;;;;;;5070085;28;20081;-72
2021/05/16 08:57:39;;;;;;;4.32;1.00;;;14.20;72.20;;;;;;5051010;28;20036;-72
2021/05/16 09:00:15;;;;;;;4.75;1.50;;;14.10;72.40;;;;;;5064701;28;20132;-72
2021/05/16 09:03:11;;;;;;;3.13;0.60;;;14.00;72.70;;;;;;5066209;28;20435;-71
2021/05/16 09:05:47;;;;;;;2.40;0.80;;;13.70;71.90;;;;;;5067638;28;20480;-71
2021/05/16 09:08:16;;;;;;;2.83;0.68;;;13.50;72.00;;;;;;5054613;28;20106;-71
2021/05/16 09:10:49;;;;;;;2.20;0.60;;;13.40;72.50;;;;;;5054700;28;20032;-72
2021/05/16 09:13:35;;;;;;;1.50;0.50;;;13.70;72.20;;;;;;5054425;28;20036;-72
2021/05/16 09:16:07;;;;;;;2.90;0.73;;;14.40;71.20;;;;;;5073494;28;20024;-72
2021/05/16 09:18:35;;;;;;;4.13;0.80;;;16.30;68.10;;;;;;5082907;28;20046;-72
2021/05/16 09:21:24;;;;;;;3.22;0.90;;;18.00;66.10;;;;;;5040964;28;20037;-72
2021/05/16 09:23:59;;;;;;;1.83;0.52;;;19.20;64.90;;;;;;5059178;28;20115;-72
2021/05/16 09:26:29;;;;;;;3.97;0.85;;;19.80;62.90;;;;;;5072477;28;20031;-72
2021/05/16 09:28:55;;;;;;;3.90;0.70;;;20.20;62.30;;;;;;5071655;28;20012;-72
2021/05/16 09:31:34;;;;;;;3.13;0.60;;;20.50;61.60;;;;;;5054512;28;20024;-72
2021/05/16 09:34:06;;;;;;;2.08;0.50;;;21.20;60.60;;;;;;5053511;28;20025;-73
2021/05/16 09:36:37;;;;;;;2.03;0.80;;;22.00;58.90;;;;;;5072381;28;20464;-72
2021/05/16 09:39:25;;;;;;;1.45;0.60;;;22.50;55.90;;;;;;5071051;28;20063;-72
2021/05/16 09:42:01;;;;;;;2.60;0.73;;;21.00;58.40;;;;;;5059347;28;20484;-72
2021/05/16 09:44:35;;;;;;;2.53;0.80;;;20.70;58.40;;;;;;5052048;28;20017;-72
2021/05/16 09:49:30;;;;;;;2.50;0.60;;;20.50;57.50;;;;;;5076689;22;20044;-90
2021/05/16 09:51:56;;;;;;;3.05;0.60;;;19.70;59.00;;;;;;5037709;28;20360;-90
2021/05/16 09:54:21;;;;;;;3.95;1.38;;;19.50;59.20;;;;;;5037268;28;20021;-89
2021/05/16 09:56:49;;;;;;;4.18;1.00;;;18.80;60.00;;;;;;5037251;28;20060;-90
2021/05/16 09:59:16;;;;;;;4.03;0.77;;;18.10;60.00;;;;;;5036948;28;20033;-90
2021/05/16 10:01:41;;;;;;;4.75;0.80;;;17.70;60.30;;;;;;5037396;28;20489;-89
2021/05/16 10:04:08;;;;;;;3.65;1.00;;;17.40;60.70;;;;;;5036473;28;20021;-90
2021/05/16 10:06:34;;;;;;;4.72;0.93;;;17.20;59.80;;;;;;5036934;28;20498;-89
2021/05/16 10:09:01;;;;;;;1.58;0.50;;;17.40;59.70;;;;;;5043676;28;20028;-91
2021/05/16 10:11:31;;;;;;;1.73;0.50;;;17.80;59.60;;;;;;5057058;28;20382;-89
2021/05/16 10:14:13;;;;;;;4.55;0.80;;;18.20;59.80;;;;;;5040115;28;20033;-89
2021/05/16 10:16:42;;;;;;;2.55;0.70;;;18.40;59.50;;;;;;5035163;28;20025;-88
2021/05/16 10:19:14;;;;;;;1.95;0.60;;;18.60;59.90;;;;;;5035309;28;20078;-89
2021/05/16 10:21:41;;;;;;;2.30;0.50;;;18.80;59.60;;;;;;5036260;28;20033;-88
2021/05/16 10:24:14;;;;;;;1.85;0.43;;;19.00;60.10;;;;;;5036653;28;20021;-90
2021/05/16 10:26:42;;;;;;;1.90;0.50;;;19.30;59.30;;;;;;5038188;28;20364;-90
2021/05/16 10:29:14;;;;;;;1.27;0.50;;;19.30;59.30;;;;;;5040426;28;20084;-90
2021/05/16 10:32:20;;;;;;;4.90;0.77;;;19.10;58.20;;;;;;5058070;28;20525;-89
2021/05/16 10:34:54;;;;;;;2.85;0.65;;;18.90;57.90;;;;;;5041602;28;20458;-90
2021/05/16 10:37:50;;;;;;;3.70;0.80;;;18.40;58.20;;;;;;5040778;28;20024;-89
2021/05/16 10:40:24;;;;;;;4.28;0.70;;;18.20;58.00;;;;;;5039825;28;20113;-90
2021/05/16 10:43:24;;;;;;;2.70;0.65;;;18.10;58.40;;;;;;5039188;28;20025;-89
2021/05/16 10:45:50;;;;;;;2.60;0.63;;;18.00;58.50;;;;;;5038121;28;20033;-88
2021/05/16 10:48:20;;;;;;;2.35;0.85;;;18.10;59.00;;;;;;5040406;28;20429;-90
2021/05/16 10:51:28;;;;;;;2.20;1.00;;;18.10;58.70;;;;;;5041470;28;20029;-89
2021/05/16 10:54:31;;;;;;;3.28;0.65;;;18.20;57.90;;;;;;5054736;28;20288;-89
2021/05/16 10:57:19;;;;;;;2.78;0.52;;;18.20;57.70;;;;;;5038372;28;20096;-88
2021/05/16 10:59:47;;;;;;;2.28;0.77;;;18.20;58.30;;;;;;5037523;28;20064;-92
2021/05/16 11:02:51;;;;;;;2.33;0.60;;;18.40;58.00;;;;;;5038901;28;20185;-91
2021/05/16 11:05:40;;;;;;;2.05;0.65;;;18.40;57.30;;;;;;5036972;28;20398;-93
2021/05/16 11:08:21;;;;;;;2.78;0.60;;;18.40;58.00;;;;;;5027701;28;20021;-94
2021/05/16 11:10:51;;;;;;;4.20;1.20;;;18.30;57.00;;;;;;5000751;28;20026;-90
2021/05/16 11:13:42;;;;;;;5.57;0.70;;;18.20;56.70;;;;;;5017222;28;20493;-91
2021/05/16 11:16:09;;;;;;;2.30;0.68;;;18.20;57.20;;;;;;5034333;28;20041;-90
2021/05/16 11:18:36;;;;;;;4.55;0.88;;;18.30;57.10;;;;;;5017080;28;20025;-91
2021/05/16 11:21:05;;;;;;;5.50;0.70;;;18.30;57.00;;;;;;5016971;28;20487;-91
2021/05/16 11:23:32;;;;;;;3.38;0.80;;;18.40;57.00;;;;;;5016947;28;20045;-91
2021/05/16 11:25:59;;;;;;;5.82;0.90;;;18.50;56.60;;;;;;5017124;28;20029;-91
2021/05/16 11:28:27;;;;;;;3.78;0.70;;;18.30;56.00;;;;;;5017209;28;20029;-90
2021/05/16 11:30:55;;;;;;;3.95;0.80;;;18.20;56.00;;;;;;5017335;28;20025;-91
2021/05/16 11:33:25;;;;;;;2.30;0.60;;;18.00;55.80;;;;;;5017102;28;20024;-91
2021/05/16 11:35:51;;;;;;;2.25;0.60;;;17.90;55.70;;;;;;5017849;28;20052;-91
2021/05/16 11:38:27;;;;;;;3.53;0.68;;;17.60;55.70;;;;;;5017373;28;20021;-91
2021/05/16 11:40:54;;;;;;;2.20;0.75;;;17.40;55.90;;;;;;5016461;28;20060;-91
2021/05/16 11:43:31;;;;;;;1.67;0.77;;;17.20;56.40;;;;;;5016868;28;20057;-91
2021/05/16 11:46:00;;;;;;;5.03;0.80;;;17.00;57.30;;;;;;5021466;28;20445;-92
2021/05/16 11:48:31;;;;;;;6.70;0.73;;;16.80;58.30;;;;;;5021504;28;20026;-92
2021/05/16 11:51:10;;;;;;;5.13;0.82;;;16.70;59.10;;;;;;5021541;28;20026;-92
2021/05/16 11:53:37;;;;;;;2.58;0.70;;;16.70;59.90;;;;;;5020928;28;20029;-92
2021/05/16 11:56:30;;;;;;;4.43;0.98;;;16.80;60.50;;;;;;5021120;28;20053;-92
2021/05/16 11:58:59;;;;;;;4.88;0.85;;;17.00;61.60;;;;;;5016757;28;20029;-92
2021/05/16 12:01:28;;;;;;;2.03;0.95;;;17.20;61.70;;;;;;5020850;28;20124;-92
2021/05/16 12:03:59;;;;;;;3.10;0.65;;;17.40;61.50;;;;;;5021478;28;20022;-91
2021/05/16 12:06:29;;;;;;;6.18;0.90;;;17.60;61.90;;;;;;5021400;28;20163;-91
2021/05/16 12:09:06;;;;;;;5.07;0.80;;;17.70;61.20;;;;;;5021268;28;20028;-91
2021/05/16 12:11:33;;;;;;;4.88;0.73;;;17.90;61.20;;;;;;5020979;28;20032;-91
2021/05/16 12:14:14;;;;;;;3.72;0.68;;;18.10;61.00;;;;;;5020964;28;20506;-91
2021/05/16 12:16:48;;;;;;;3.00;0.60;;;18.40;60.90;;;;;;5020352;28;20021;-91
2021/05/16 12:19:21;;;;;;;4.10;0.90;;;18.60;60.60;;;;;;5020494;28;20054;-93
2021/05/16 12:22:18;;;;;;;5.28;0.68;;;18.70;59.20;;;;;;5020999;28;20036;-93
2021/05/16 12:24:46;;;;;;;6.63;1.13;;;18.70;58.00;;;;;;5020833;28;20523;-93
2021/05/16 12:27:17;;;;;;;3.60;1.00;;;18.80;58.40;;;;;;5019701;28;20028;-91
2021/05/16 12:29:45;;;;;;;5.13;1.13;;;18.90;57.90;;;;;;5020096;28;20051;-91
2021/05/16 12:32:20;;;;;;;8.23;1.08;;;19.00;57.80;;;;;;5020146;28;20510;-90
2021/05/16 12:34:55;;;;;;;0.80;0.52;;;19.30;58.50;;;;;;5038375;28;20488;-90
2021/05/16 12:38:12;;;;;;;3.73;0.77;;;19.40;58.30;;;;;;5036150;28;20033;-91
2021/05/16 12:40:38;;;;;;;4.47;0.82;;;19.40;57.80;;;;;;5021424;28;20717;-91
2021/05/16 12:43:09;;;;;;;3.53;0.90;;;19.50;57.50;;;;;;5019868;28;20022;-92
2021/05/16 12:45:38;;;;;;;5.23;1.00;;;19.60;56.50;;;;;;5020987;28;20507;-93
2021/05/16 12:48:22;;;;;;;4.80;1.10;;;19.60;56.30;;;;;;5019756;28;20438;-93
2021/05/16 12:50:50;;;;;;;7.80;1.30;;;19.50;55.60;;;;;;5019800;28;20030;-91
2021/05/16 12:53:25;;;;;;;2.80;0.85;;;19.50;55.60;;;;;;5019648;28;20045;-91
2021/05/16 12:55:52;;;;;;;2.10;0.57;;;19.40;55.70;;;;;;5019965;28;20085;-91
2021/05/16 12:58:34;;;;;;;1.30;0.50;;;19.40;55.70;;;;;;5019967;28;20496;-90
2021/05/16 13:01:00;;;;;;;2.53;0.50;;;19.40;55.20;;;;;;5020446;28;20499;-91
2021/05/16 13:03:32;;;;;;;3.75;0.70;;;19.30;55.40;;;;;;5021787;28;20569;-91